createdAt,value
2016-12-19T00:00:50.008Z,0
2016-12-19T00:01:49.990Z,0
2016-12-19T00:02:49.972Z,0
2016-12-19T00:03:49.967Z,0
2016-12-19T00:04:49.973Z,0
2016-12-19T00:05:50.243Z,0
2016-12-19T00:06:49.909Z,0
2016-12-19T00:07:49.891Z,0
2016-12-19T00:08:49.877Z,0
2016-12-19T00:09:49.861Z,0
2016-12-19T00:10:49.846Z,0
2016-12-19T00:11:49.829Z,0
2016-12-19T00:12:49.821Z,0
2016-12-19T00:13:49.807Z,0
2016-12-19T00:14:49.786Z,0
2016-12-19T00:15:49.777Z,0
2016-12-19T00:16:49.752Z,0
2016-12-19T00:17:49.740Z,0
2016-12-19T00:18:49.718Z,0
2016-12-19T00:19:49.703Z,0
2016-12-19T00:20:49.691Z,0
2016-12-19T00:21:49.677Z,0
2016-12-19T00:22:49.658Z,0
2016-12-19T00:23:49.649Z,0
2016-12-19T00:24:49.654Z,0
2016-12-19T00:25:49.607Z,0
2016-12-19T00:26:49.621Z,0
2016-12-19T00:27:49.895Z,0
2016-12-19T00:28:49.560Z,0
2016-12-19T00:29:49.551Z,0
2016-12-19T00:30:49.528Z,0
2016-12-19T00:31:49.518Z,0
2016-12-19T00:32:49.498Z,0
2016-12-19T00:33:49.478Z,0
2016-12-19T00:34:49.466Z,0
2016-12-19T00:35:49.456Z,0
2016-12-19T00:36:49.432Z,0
2016-12-19T00:37:49.419Z,0
2016-12-19T00:38:49.401Z,0
2016-12-19T00:39:49.385Z,0
2016-12-19T00:40:49.372Z,0
2016-12-19T00:41:49.384Z,0
2016-12-19T00:42:49.340Z,0
2016-12-19T00:43:49.321Z,0
2016-12-19T00:44:49.304Z,0
2016-12-19T00:45:49.302Z,0
2016-12-19T00:46:49.278Z,0
2016-12-19T00:47:49.263Z,0
2016-12-19T00:48:49.246Z,0
2016-12-19T00:49:49.227Z,0
2016-12-19T00:50:49.223Z,0
2016-12-19T00:51:49.198Z,0
2016-12-19T00:52:49.177Z,0
2016-12-19T00:53:49.164Z,0
2016-12-19T00:54:49.152Z,0
2016-12-19T00:55:49.135Z,0
2016-12-19T00:56:49.121Z,0
2016-12-19T00:57:49.104Z,0
2016-12-19T00:58:49.084Z,0
2016-12-19T00:59:49.067Z,0
2016-12-19T01:00:49.055Z,0
2016-12-19T01:01:49.041Z,0
2016-12-19T01:02:49.018Z,0
2016-12-19T01:03:49.008Z,0
2016-12-19T01:04:48.992Z,0
2016-12-19T01:05:48.982Z,0
2016-12-19T01:06:48.958Z,0
2016-12-19T01:07:48.943Z,0
2016-12-19T01:08:50.150Z,0
2016-12-19T01:09:48.909Z,0
2016-12-19T01:10:48.901Z,0
2016-12-19T01:11:50.169Z,0
2016-12-19T01:12:48.860Z,0
2016-12-19T01:13:48.849Z,0
2016-12-19T01:14:50.034Z,0
2016-12-19T01:15:49.126Z,0
2016-12-19T01:16:48.795Z,0
2016-12-19T01:17:49.097Z,0
2016-12-19T01:18:48.987Z,0
2016-12-19T01:19:48.747Z,0
2016-12-19T01:20:48.732Z,0
2016-12-19T01:21:49.116Z,0
2016-12-19T01:22:48.700Z,0
2016-12-19T01:23:48.684Z,0
2016-12-19T01:24:49.124Z,0
2016-12-19T01:25:48.650Z,0
2016-12-19T01:26:48.634Z,0
2016-12-19T01:27:48.984Z,0
2016-12-19T01:28:48.806Z,0
2016-12-19T01:29:48.586Z,0
2016-12-19T01:30:50.246Z,0
2016-12-19T01:31:48.556Z,0
2016-12-19T01:32:48.542Z,0
2016-12-19T01:33:50.235Z,0
2016-12-19T01:34:48.823Z,0
2016-12-19T01:35:48.482Z,0
2016-12-19T01:36:49.775Z,0
2016-12-19T01:37:48.458Z,0
2016-12-19T01:38:48.440Z,0
2016-12-19T01:39:49.591Z,0
2016-12-19T01:40:48.409Z,0
2016-12-19T01:41:48.393Z,0
2016-12-19T01:42:49.818Z,0
2016-12-19T01:43:48.364Z,0
2016-12-19T01:44:48.341Z,0
2016-12-19T01:45:48.324Z,0
2016-12-19T01:46:48.632Z,0
2016-12-19T01:47:48.293Z,0
2016-12-19T01:48:48.674Z,0
2016-12-19T01:49:48.254Z,0
2016-12-19T01:50:48.244Z,0
2016-12-19T01:51:48.377Z,0
2016-12-19T01:52:48.213Z,0
2016-12-19T01:53:48.221Z,0
2016-12-19T01:54:48.523Z,0
2016-12-19T01:55:48.162Z,0
2016-12-19T01:56:48.198Z,0
2016-12-19T01:57:48.127Z,0
2016-12-19T01:58:49.045Z,0
2016-12-19T01:59:48.122Z,0
2016-12-19T02:00:48.073Z,0
2016-12-19T02:01:48.775Z,0
2016-12-19T02:02:48.045Z,0
2016-12-19T02:03:48.026Z,0
2016-12-19T02:04:48.450Z,0
2016-12-19T02:05:47.992Z,0
2016-12-19T02:06:47.976Z,0
2016-12-19T02:07:48.466Z,0
2016-12-19T02:08:47.942Z,0
2016-12-19T02:09:47.923Z,0
2016-12-19T02:10:47.917Z,0
2016-12-19T02:11:48.278Z,0
2016-12-19T02:12:47.880Z,0
2016-12-19T02:13:47.862Z,0
2016-12-19T02:14:48.785Z,0
2016-12-19T02:15:47.839Z,0
2016-12-19T02:16:47.813Z,0
2016-12-19T02:17:48.854Z,0
2016-12-19T02:18:47.778Z,0
2016-12-19T02:19:47.768Z,0
2016-12-19T02:20:47.770Z,0
2016-12-19T02:21:47.726Z,0
2016-12-19T02:22:47.717Z,0
2016-12-19T02:23:47.840Z,0
2016-12-19T02:24:47.996Z,0
2016-12-19T02:25:47.663Z,0
2016-12-19T02:26:47.784Z,0
2016-12-19T02:27:47.632Z,0
2016-12-19T02:28:47.643Z,0
2016-12-19T02:29:47.739Z,0
2016-12-19T02:30:47.580Z,0
2016-12-19T02:31:47.567Z,0
2016-12-19T02:32:47.651Z,0
2016-12-19T02:33:47.533Z,0
2016-12-19T02:34:47.518Z,0
2016-12-19T02:35:47.501Z,0
2016-12-19T02:36:48.036Z,0
2016-12-19T02:37:47.654Z,0
2016-12-19T02:38:47.449Z,0
2016-12-19T02:39:47.433Z,0
2016-12-19T02:40:47.541Z,0
2016-12-19T02:41:47.411Z,0
2016-12-19T02:42:47.384Z,0
2016-12-19T02:43:47.520Z,0
2016-12-19T02:44:47.361Z,0
2016-12-19T02:45:48.849Z,0
2016-12-19T02:46:47.320Z,0
2016-12-19T02:47:47.310Z,0
2016-12-19T02:48:48.068Z,0
2016-12-19T02:49:47.586Z,0
2016-12-19T02:50:47.255Z,0
2016-12-19T02:51:47.816Z,0
2016-12-19T02:52:47.228Z,0
2016-12-19T02:53:47.211Z,0
2016-12-19T02:54:47.996Z,0
2016-12-19T02:55:47.176Z,0
2016-12-19T02:56:47.161Z,0
2016-12-19T02:57:48.393Z,0
2016-12-19T02:58:47.128Z,0
2016-12-19T02:59:47.108Z,0
2016-12-19T03:00:48.029Z,0
2016-12-19T03:01:47.090Z,0
2016-12-19T03:02:47.062Z,0
2016-12-19T03:03:48.388Z,0
2016-12-19T03:04:47.029Z,0
2016-12-19T03:05:47.010Z,0
2016-12-19T03:06:46.995Z,0
2016-12-19T03:07:48.524Z,0
2016-12-19T03:08:46.969Z,0
2016-12-19T03:09:46.955Z,0
2016-12-19T03:10:48.156Z,0
2016-12-19T03:11:46.918Z,0
2016-12-19T03:12:46.898Z,0
2016-12-19T03:13:47.598Z,0
2016-12-19T03:14:46.879Z,0
2016-12-19T03:15:46.850Z,0
2016-12-19T03:16:48.244Z,0
2016-12-19T03:17:46.817Z,0
2016-12-19T03:18:46.802Z,0
2016-12-19T03:19:47.998Z,0
2016-12-19T03:20:46.772Z,0
2016-12-19T03:21:46.760Z,0
2016-12-19T03:22:47.936Z,0
2016-12-19T03:23:46.723Z,0
2016-12-19T03:24:46.711Z,0
2016-12-19T03:25:47.919Z,0
2016-12-19T03:26:46.675Z,0
2016-12-19T03:27:46.665Z,0
2016-12-19T03:28:47.185Z,0
2016-12-19T03:29:46.627Z,0
2016-12-19T03:30:46.618Z,0
2016-12-19T03:31:46.595Z,0
2016-12-19T03:32:46.580Z,0
2016-12-19T03:33:46.592Z,0
2016-12-19T03:34:46.544Z,0
2016-12-19T03:35:46.531Z,0
2016-12-19T03:36:46.509Z,0
2016-12-19T03:37:46.494Z,0
2016-12-19T03:38:46.485Z,0
2016-12-19T03:39:46.464Z,0
2016-12-19T03:40:46.448Z,0
2016-12-19T03:41:46.434Z,0
2016-12-19T03:42:46.411Z,0
2016-12-19T03:43:46.397Z,0
2016-12-19T03:44:46.698Z,0
2016-12-19T03:45:46.683Z,0
2016-12-19T03:46:46.349Z,0
2016-12-19T03:47:46.336Z,0
2016-12-19T03:48:46.321Z,0
2016-12-19T03:49:46.301Z,0
2016-12-19T03:50:46.287Z,0
2016-12-19T03:51:46.267Z,0
2016-12-19T03:52:46.252Z,0
2016-12-19T03:53:46.239Z,0
2016-12-19T03:54:46.222Z,0
2016-12-19T03:55:46.204Z,0
2016-12-19T03:56:46.187Z,0
2016-12-19T03:57:46.175Z,0
2016-12-19T03:58:46.165Z,0
2016-12-19T03:59:46.143Z,0
2016-12-19T04:00:46.158Z,0
2016-12-19T04:01:46.431Z,0
2016-12-19T04:02:46.089Z,0
2016-12-19T04:03:46.071Z,0
2016-12-19T04:04:46.064Z,0
2016-12-19T04:05:46.047Z,0
2016-12-19T04:06:46.029Z,0
2016-12-19T04:07:46.013Z,0
2016-12-19T04:08:45.998Z,0
2016-12-19T04:09:45.983Z,0
2016-12-19T04:10:45.994Z,0
2016-12-19T04:11:45.946Z,0
2016-12-19T04:12:45.933Z,0
2016-12-19T04:13:46.229Z,0
2016-12-19T04:14:45.900Z,0
2016-12-19T04:15:45.888Z,0
2016-12-19T04:16:45.865Z,0
2016-12-19T04:17:45.851Z,0
2016-12-19T04:18:45.837Z,0
2016-12-19T04:19:45.820Z,0
2016-12-19T04:20:45.802Z,0
2016-12-19T04:21:45.789Z,0
2016-12-19T04:22:45.768Z,0
2016-12-19T04:23:45.794Z,0
2016-12-19T04:24:45.740Z,0
2016-12-19T04:25:45.723Z,0
2016-12-19T04:26:45.709Z,0
2016-12-19T04:27:45.693Z,0
2016-12-19T04:28:45.673Z,0
2016-12-19T04:29:45.657Z,0
2016-12-19T04:30:45.641Z,0
2016-12-19T04:31:45.627Z,0
2016-12-19T04:32:45.607Z,0
2016-12-19T04:33:45.592Z,0
2016-12-19T04:34:45.577Z,0
2016-12-19T04:35:45.563Z,0
2016-12-19T04:36:45.574Z,0
2016-12-19T04:37:45.532Z,0
2016-12-19T04:38:45.521Z,0
2016-12-19T04:39:45.523Z,0
2016-12-19T04:40:45.480Z,0
2016-12-19T04:41:45.466Z,0
2016-12-19T04:42:45.453Z,0
2016-12-19T04:43:45.431Z,0
2016-12-19T04:44:45.416Z,0
2016-12-19T04:45:45.402Z,0
2016-12-19T04:46:45.380Z,0
2016-12-19T04:47:45.366Z,0
2016-12-19T04:48:45.347Z,0
2016-12-19T04:49:45.335Z,0
2016-12-19T04:50:45.320Z,0
2016-12-19T04:51:45.298Z,0
2016-12-19T04:52:45.288Z,0
2016-12-19T04:53:45.276Z,0
2016-12-19T04:54:45.259Z,0
2016-12-19T04:55:45.246Z,0
2016-12-19T04:56:45.224Z,0
2016-12-19T04:57:45.206Z,0
2016-12-19T04:58:45.187Z,0
2016-12-19T04:59:45.493Z,0
2016-12-19T05:00:45.155Z,0
2016-12-19T05:01:45.147Z,0
2016-12-19T05:02:45.127Z,0
2016-12-19T05:03:45.111Z,0
2016-12-19T05:04:45.100Z,0
2016-12-19T05:05:45.074Z,0
2016-12-19T05:06:45.066Z,0
2016-12-19T05:07:45.047Z,0
2016-12-19T05:08:45.032Z,0
2016-12-19T05:09:45.012Z,0
2016-12-19T05:10:44.998Z,0
2016-12-19T05:11:44.984Z,0
2016-12-19T05:12:44.969Z,0
2016-12-19T05:13:44.951Z,0
2016-12-19T05:14:44.934Z,0
2016-12-19T05:15:44.921Z,0
2016-12-19T05:16:44.905Z,0
2016-12-19T05:17:44.886Z,0
2016-12-19T05:18:44.871Z,0
2016-12-19T05:19:44.865Z,0
2016-12-19T05:20:44.839Z,0
2016-12-19T05:21:44.823Z,0
2016-12-19T05:22:44.808Z,0
2016-12-19T05:23:44.790Z,0
2016-12-19T05:24:44.772Z,0
2016-12-19T05:25:44.761Z,0
2016-12-19T05:26:44.743Z,0
2016-12-19T05:27:44.726Z,0
2016-12-19T05:28:44.710Z,0
2016-12-19T05:29:44.692Z,0
2016-12-19T05:30:44.685Z,0
2016-12-19T05:31:44.664Z,0
2016-12-19T05:32:44.643Z,0
2016-12-19T05:33:44.658Z,0
2016-12-19T05:34:44.615Z,0
2016-12-19T05:35:44.593Z,0
2016-12-19T05:36:44.577Z,0
2016-12-19T05:37:44.567Z,0
2016-12-19T05:38:44.546Z,0
2016-12-19T05:39:44.531Z,0
2016-12-19T05:40:44.521Z,0
2016-12-19T05:41:44.500Z,0
2016-12-19T05:42:44.488Z,0
2016-12-19T05:43:44.468Z,0
2016-12-19T05:44:44.456Z,0
2016-12-19T05:45:44.468Z,0
2016-12-19T05:46:44.419Z,0
2016-12-19T05:47:44.406Z,0
2016-12-19T05:48:44.419Z,0
2016-12-19T05:49:44.372Z,0
2016-12-19T05:50:44.354Z,0
2016-12-19T05:51:44.655Z,0
2016-12-19T05:52:44.325Z,0
2016-12-19T05:53:44.309Z,0
2016-12-19T05:54:44.290Z,0
2016-12-19T05:55:44.280Z,0
2016-12-19T05:56:44.262Z,0
2016-12-19T05:57:44.245Z,0
2016-12-19T05:58:44.235Z,0
2016-12-19T05:59:44.213Z,0
2016-12-19T06:00:44.188Z,0
2016-12-19T06:01:44.180Z,0
2016-12-19T06:02:44.164Z,0
2016-12-19T06:03:44.146Z,0
2016-12-19T06:04:44.136Z,0
2016-12-19T06:05:44.114Z,0
2016-12-19T06:06:44.100Z,0
2016-12-19T06:07:44.086Z,0
2016-12-19T06:08:44.075Z,0
2016-12-19T06:09:44.049Z,0
2016-12-19T06:10:44.035Z,0
2016-12-19T06:11:44.015Z,0
2016-12-19T06:12:44.002Z,0
2016-12-19T06:13:43.983Z,0
2016-12-19T06:14:43.965Z,0
2016-12-19T06:15:43.951Z,0
2016-12-19T06:16:43.940Z,0
2016-12-19T06:17:43.930Z,0
2016-12-19T06:18:43.906Z,0
2016-12-19T06:19:43.884Z,0
2016-12-19T06:20:43.873Z,0
2016-12-19T06:21:43.856Z,0
2016-12-19T06:22:43.843Z,0
2016-12-19T06:23:43.857Z,0
2016-12-19T06:24:43.809Z,0
2016-12-19T06:25:43.793Z,0
2016-12-19T06:26:43.778Z,0
2016-12-19T06:27:43.753Z,0
2016-12-19T06:28:43.740Z,0
2016-12-19T06:29:44.041Z,0
2016-12-19T06:30:43.709Z,0
2016-12-19T06:31:43.697Z,0
2016-12-19T06:32:43.681Z,0
2016-12-19T06:33:43.660Z,0
2016-12-19T06:34:43.644Z,0
2016-12-19T06:35:43.637Z,0
2016-12-19T06:36:43.615Z,0
2016-12-19T06:37:43.593Z,0
2016-12-19T06:38:43.581Z,0
2016-12-19T06:39:43.563Z,0
2016-12-19T06:40:43.554Z,0
2016-12-19T06:41:43.531Z,0
2016-12-19T06:42:43.530Z,0
2016-12-19T06:43:43.500Z,0
2016-12-19T06:44:43.480Z,0
2016-12-19T06:45:43.462Z,0
2016-12-19T06:46:43.447Z,0
2016-12-19T06:47:43.424Z,0
2016-12-19T06:48:43.413Z,0
2016-12-19T06:49:43.397Z,0
2016-12-19T06:50:43.387Z,0
2016-12-19T06:51:43.366Z,0
2016-12-19T06:52:43.349Z,0
2016-12-19T06:53:43.337Z,0
2016-12-19T06:54:43.314Z,0
2016-12-19T06:55:43.291Z,0
2016-12-19T06:56:43.283Z,0
2016-12-19T06:57:43.265Z,0
2016-12-19T06:58:43.247Z,0
2016-12-19T06:59:43.244Z,0
2016-12-19T07:00:43.217Z,0
2016-12-19T07:01:43.198Z,0
2016-12-19T07:02:43.180Z,5
2016-12-19T07:03:43.170Z,5
2016-12-19T07:04:43.148Z,5
2016-12-19T07:05:43.447Z,5
2016-12-19T07:06:43.118Z,5
2016-12-19T07:07:43.099Z,5
2016-12-19T07:08:43.086Z,5
2016-12-19T07:09:43.070Z,5
2016-12-19T07:10:43.052Z,5
2016-12-19T07:11:43.035Z,10
2016-12-19T07:12:43.048Z,10
2016-12-19T07:13:43.000Z,10
2016-12-19T07:14:43.316Z,10
2016-12-19T07:15:42.972Z,10
2016-12-19T07:16:42.955Z,10
2016-12-19T07:17:42.934Z,10
2016-12-19T07:18:42.920Z,15
2016-12-19T07:19:42.931Z,15
2016-12-19T07:20:42.887Z,15
2016-12-19T07:21:42.865Z,15
2016-12-19T07:22:42.852Z,15
2016-12-19T07:23:42.835Z,15
2016-12-19T07:24:42.822Z,20
2016-12-19T07:25:42.834Z,20
2016-12-19T07:26:42.787Z,20
2016-12-19T07:27:42.772Z,20
2016-12-19T07:28:42.754Z,20
2016-12-19T07:29:42.735Z,20
2016-12-19T07:30:42.715Z,25
2016-12-19T07:31:42.704Z,25
2016-12-19T07:32:42.685Z,25
2016-12-19T07:33:42.675Z,25
2016-12-19T07:34:42.651Z,25
2016-12-19T07:35:42.636Z,25
2016-12-19T07:36:42.627Z,30
2016-12-19T07:37:42.601Z,30
2016-12-19T07:38:42.591Z,30
2016-12-19T07:39:42.571Z,30
2016-12-19T07:40:42.550Z,30
2016-12-19T07:41:42.538Z,30
2016-12-19T07:42:42.521Z,35
2016-12-19T07:43:42.507Z,35
2016-12-19T07:44:42.519Z,35
2016-12-19T07:45:42.478Z,35
2016-12-19T07:46:42.458Z,40
2016-12-19T07:47:42.436Z,40
2016-12-19T07:48:42.424Z,40
2016-12-19T07:49:42.403Z,40
2016-12-19T07:50:42.390Z,45
2016-12-19T07:51:42.366Z,45
2016-12-19T07:52:42.355Z,45
2016-12-19T07:53:42.368Z,50
2016-12-19T07:54:42.322Z,55
2016-12-19T07:55:42.313Z,55
2016-12-19T07:56:42.321Z,55
2016-12-19T07:57:42.593Z,60
2016-12-19T07:58:42.257Z,65
2016-12-19T07:59:42.236Z,60
2016-12-19T08:00:42.225Z,60
2016-12-19T08:01:42.202Z,60
2016-12-19T08:02:42.225Z,65
2016-12-19T08:03:42.177Z,65
2016-12-19T08:04:42.158Z,65
2016-12-19T08:05:42.142Z,65
2016-12-19T08:06:42.128Z,70
2016-12-19T08:07:42.104Z,70
2016-12-19T08:08:42.085Z,70
2016-12-19T08:09:42.070Z,75
2016-12-19T08:10:42.059Z,75
2016-12-19T08:11:42.045Z,75
2016-12-19T08:12:42.024Z,75
2016-12-19T08:13:42.012Z,80
2016-12-19T08:14:41.990Z,85
2016-12-19T08:15:42.114Z,75
2016-12-19T08:16:41.957Z,80
2016-12-19T08:17:41.949Z,75
2016-12-19T08:18:42.124Z,75
2016-12-19T08:19:41.910Z,80
2016-12-19T08:20:41.888Z,75
2016-12-19T08:21:41.881Z,80
2016-12-19T08:22:41.863Z,80
2016-12-19T08:23:41.846Z,80
2016-12-19T08:24:41.829Z,80
2016-12-19T08:25:41.815Z,85
2016-12-19T08:26:42.000Z,80
2016-12-19T08:27:41.784Z,80
2016-12-19T08:28:41.764Z,85
2016-12-19T08:29:41.756Z,85
2016-12-19T08:30:41.733Z,80
2016-12-19T08:31:41.721Z,85
2016-12-19T08:32:41.699Z,85
2016-12-19T08:33:41.684Z,90
2016-12-19T08:34:41.666Z,95
2016-12-19T08:35:41.657Z,95
2016-12-19T08:36:41.663Z,90
2016-12-19T08:37:41.622Z,90
2016-12-19T08:38:41.601Z,90
2016-12-19T08:39:41.623Z,90
2016-12-19T08:40:41.575Z,90
2016-12-19T08:41:41.559Z,100
2016-12-19T08:42:41.544Z,110
2016-12-19T08:43:41.523Z,105
2016-12-19T08:44:41.548Z,100
2016-12-19T08:45:41.496Z,105
2016-12-19T08:46:41.481Z,110
2016-12-19T08:47:41.461Z,110
2016-12-19T08:48:41.454Z,115
2016-12-19T08:49:41.448Z,125
2016-12-19T08:50:41.420Z,120
2016-12-19T08:51:41.401Z,115
2016-12-19T08:52:41.393Z,105
2016-12-19T08:53:41.370Z,105
2016-12-19T08:54:41.352Z,105
2016-12-19T08:55:41.336Z,115
2016-12-19T08:56:41.319Z,115
2016-12-19T08:57:41.304Z,120
2016-12-19T08:58:41.286Z,125
2016-12-19T08:59:41.276Z,120
2016-12-19T09:00:41.257Z,110
2016-12-19T09:01:41.279Z,100
2016-12-19T09:02:41.226Z,95
2016-12-19T09:03:41.211Z,105
2016-12-19T09:04:41.193Z,105
2016-12-19T09:05:41.185Z,110
2016-12-19T09:06:41.164Z,110
2016-12-19T09:07:41.162Z,110
2016-12-19T09:08:41.135Z,120
2016-12-19T09:09:41.121Z,120
2016-12-19T09:10:41.105Z,115
2016-12-19T09:11:41.118Z,120
2016-12-19T09:12:41.072Z,135
2016-12-19T09:13:41.058Z,130
2016-12-19T09:14:41.041Z,130
2016-12-19T09:15:41.023Z,125
2016-12-19T09:16:41.006Z,130
2016-12-19T09:17:40.994Z,130
2016-12-19T09:18:40.983Z,120
2016-12-19T09:19:40.958Z,130
2016-12-19T09:20:40.939Z,130
2016-12-19T09:21:40.933Z,125
2016-12-19T09:22:40.913Z,120
2016-12-19T09:23:40.899Z,110
2016-12-19T09:24:40.882Z,110
2016-12-19T09:25:40.863Z,110
2016-12-19T09:26:40.848Z,105
2016-12-19T09:27:40.841Z,105
2016-12-19T09:28:40.823Z,105
2016-12-19T09:29:40.805Z,105
2016-12-19T09:30:40.787Z,100
2016-12-19T09:31:40.773Z,100
2016-12-19T09:32:40.771Z,95
2016-12-19T09:33:41.059Z,90
2016-12-19T09:34:40.732Z,90
2016-12-19T09:35:40.713Z,90
2016-12-19T09:36:40.697Z,90
2016-12-19T09:37:40.681Z,90
2016-12-19T09:38:40.665Z,90
2016-12-19T09:39:40.976Z,90
2016-12-19T09:40:40.632Z,90
2016-12-19T09:41:40.642Z,90
2016-12-19T09:42:40.601Z,90
2016-12-19T09:43:40.592Z,90
2016-12-19T09:44:40.885Z,90
2016-12-19T09:45:40.585Z,90
2016-12-19T09:46:40.542Z,90
2016-12-19T09:47:40.525Z,90
2016-12-19T09:48:40.502Z,90
2016-12-19T09:49:40.490Z,90
2016-12-19T09:50:40.475Z,95
2016-12-19T09:51:40.492Z,95
2016-12-19T09:52:40.437Z,95
2016-12-19T09:53:40.431Z,95
2016-12-19T09:54:40.443Z,95
2016-12-19T09:55:40.393Z,95
2016-12-19T09:56:40.704Z,95
2016-12-19T09:57:40.367Z,95
2016-12-19T09:58:40.351Z,95
2016-12-19T09:59:40.334Z,95
2016-12-19T10:00:40.352Z,95
2016-12-19T10:01:40.303Z,95
2016-12-19T10:02:40.284Z,90
2016-12-19T10:03:40.271Z,90
2016-12-19T10:04:40.250Z,95
2016-12-19T10:05:40.239Z,95
2016-12-19T10:06:40.219Z,100
2016-12-19T10:07:40.205Z,105
2016-12-19T10:08:40.192Z,105
2016-12-19T10:09:40.173Z,105
2016-12-19T10:10:40.157Z,105
2016-12-19T10:11:40.174Z,105
2016-12-19T10:12:40.157Z,105
2016-12-19T10:13:40.107Z,105
2016-12-19T10:14:40.091Z,105
2016-12-19T10:15:40.107Z,105
2016-12-19T10:16:40.060Z,100
2016-12-19T10:17:40.040Z,105
2016-12-19T10:18:40.028Z,110
2016-12-19T10:19:40.011Z,110
2016-12-19T10:20:39.998Z,115
2016-12-19T10:21:40.061Z,115
2016-12-19T10:22:40.709Z,110
2016-12-19T10:23:39.946Z,110
2016-12-19T10:24:39.934Z,105
2016-12-19T10:25:39.914Z,105
2016-12-19T10:26:39.900Z,105
2016-12-19T10:27:39.884Z,100
2016-12-19T10:28:39.869Z,100
2016-12-19T10:29:39.852Z,100
2016-12-19T10:30:39.833Z,100
2016-12-19T10:31:39.826Z,105
2016-12-19T10:32:39.805Z,105
2016-12-19T10:33:39.785Z,105
2016-12-19T10:34:39.814Z,115
2016-12-19T10:35:39.760Z,115
2016-12-19T10:36:39.779Z,115
2016-12-19T10:37:39.725Z,120
2016-12-19T10:38:39.707Z,125
2016-12-19T10:39:39.695Z,120
2016-12-19T10:40:39.675Z,115
2016-12-19T10:41:39.666Z,120
2016-12-19T10:42:39.653Z,115
2016-12-19T10:43:39.630Z,115
2016-12-19T10:44:39.610Z,115
2016-12-19T10:45:39.595Z,110
2016-12-19T10:46:39.575Z,110
2016-12-19T10:47:39.577Z,110
2016-12-19T10:48:39.558Z,115
2016-12-19T10:49:39.534Z,120
2016-12-19T10:50:39.518Z,145
2016-12-19T10:51:39.498Z,160
2016-12-19T10:52:39.486Z,160
2016-12-19T10:53:39.467Z,165
2016-12-19T10:54:39.455Z,165
2016-12-19T10:55:39.439Z,175
2016-12-19T10:56:39.425Z,170
2016-12-19T10:57:39.408Z,165
2016-12-19T10:58:39.389Z,170
2016-12-19T10:59:39.702Z,170
2016-12-19T11:00:39.390Z,170
2016-12-19T11:01:39.353Z,160
2016-12-19T11:02:39.663Z,150
2016-12-19T11:03:39.312Z,145
2016-12-19T11:04:39.297Z,145
2016-12-19T11:05:39.293Z,135
2016-12-19T11:06:39.265Z,140
2016-12-19T11:07:39.878Z,145
2016-12-19T11:08:39.236Z,150
2016-12-19T11:09:39.219Z,145
2016-12-19T11:10:39.204Z,145
2016-12-19T11:11:39.192Z,145
2016-12-19T11:12:39.181Z,150
2016-12-19T11:13:39.157Z,150
2016-12-19T11:14:39.150Z,155
2016-12-19T11:15:39.130Z,165
2016-12-19T11:16:39.112Z,160
2016-12-19T11:17:39.098Z,160
2016-12-19T11:18:39.086Z,160
2016-12-19T11:19:39.069Z,175
2016-12-19T11:20:39.059Z,195
2016-12-19T11:21:39.039Z,210
2016-12-19T11:22:39.024Z,205
2016-12-19T11:23:39.005Z,175
2016-12-19T11:24:38.991Z,160
2016-12-19T11:25:39.110Z,155
2016-12-19T11:26:38.958Z,155
2016-12-19T11:27:38.955Z,160
2016-12-19T11:28:38.937Z,175
2016-12-19T11:29:38.939Z,190
2016-12-19T11:30:38.903Z,185
2016-12-19T11:31:38.889Z,190
2016-12-19T11:32:38.878Z,180
2016-12-19T11:33:38.857Z,165
2016-12-19T11:34:38.889Z,155
2016-12-19T11:35:38.861Z,150
2016-12-19T11:36:39.132Z,150
2016-12-19T11:37:38.800Z,135
2016-12-19T11:38:38.790Z,115
2016-12-19T11:39:38.776Z,110
2016-12-19T11:40:38.757Z,110
2016-12-19T11:41:38.735Z,110
2016-12-19T11:42:38.725Z,110
2016-12-19T11:43:38.712Z,110
2016-12-19T11:44:38.734Z,110
2016-12-19T11:45:38.687Z,120
2016-12-19T11:46:38.670Z,130
2016-12-19T11:47:38.655Z,120
2016-12-19T11:48:38.634Z,110
2016-12-19T11:49:38.621Z,100
2016-12-19T11:50:38.610Z,100
2016-12-19T11:51:38.623Z,95
2016-12-19T11:52:38.575Z,95
2016-12-19T11:53:38.565Z,100
2016-12-19T11:54:38.544Z,100
2016-12-19T11:55:38.551Z,95
2016-12-19T11:56:38.516Z,95
2016-12-19T11:57:38.507Z,95
2016-12-19T11:58:38.490Z,95
2016-12-19T11:59:38.467Z,95
2016-12-19T12:00:38.454Z,100
2016-12-19T12:01:38.444Z,100
2016-12-19T12:02:38.434Z,95
2016-12-19T12:03:38.417Z,95
2016-12-19T12:04:38.396Z,95
2016-12-19T12:05:38.407Z,90
2016-12-19T12:06:38.364Z,95
2016-12-19T12:07:38.351Z,95
2016-12-19T12:08:38.338Z,100
2016-12-19T12:09:38.323Z,100
2016-12-19T12:10:38.338Z,100
2016-12-19T12:11:38.289Z,95
2016-12-19T12:12:38.276Z,90
2016-12-19T12:13:38.256Z,90
2016-12-19T12:14:38.242Z,85
2016-12-19T12:15:38.230Z,85
2016-12-19T12:16:38.210Z,90
2016-12-19T12:17:38.196Z,85
2016-12-19T12:18:38.185Z,85
2016-12-19T12:19:38.165Z,90
2016-12-19T12:20:38.183Z,85
2016-12-19T12:21:38.138Z,85
2016-12-19T12:22:38.130Z,85
2016-12-19T12:23:38.101Z,85
2016-12-19T12:24:38.091Z,85
2016-12-19T12:25:38.071Z,85
2016-12-19T12:26:38.063Z,85
2016-12-19T12:27:38.047Z,90
2016-12-19T12:28:38.029Z,85
2016-12-19T12:29:38.046Z,90
2016-12-19T12:30:37.996Z,90
2016-12-19T12:31:37.984Z,90
2016-12-19T12:32:37.963Z,90
2016-12-19T12:33:37.952Z,90
2016-12-19T12:34:37.935Z,90
2016-12-19T12:35:37.917Z,90
2016-12-19T12:36:38.232Z,85
2016-12-19T12:37:37.885Z,85
2016-12-19T12:38:37.876Z,85
2016-12-19T12:39:38.174Z,85
2016-12-19T12:40:37.865Z,85
2016-12-19T12:41:37.824Z,85
2016-12-19T12:42:37.806Z,85
2016-12-19T12:43:37.792Z,85
2016-12-19T12:44:37.775Z,85
2016-12-19T12:45:37.757Z,85
2016-12-19T12:46:37.745Z,85
2016-12-19T12:47:37.727Z,85
2016-12-19T12:48:37.712Z,85
2016-12-19T12:49:37.696Z,85
2016-12-19T12:50:37.677Z,85
2016-12-19T12:51:37.669Z,85
2016-12-19T12:52:37.652Z,85
2016-12-19T12:53:37.629Z,80
2016-12-19T12:54:37.622Z,80
2016-12-19T12:55:37.602Z,80
2016-12-19T12:56:37.582Z,80
2016-12-19T12:57:37.565Z,80
2016-12-19T12:58:37.550Z,80
2016-12-19T12:59:37.544Z,80
2016-12-19T13:00:37.529Z,80
2016-12-19T13:01:37.507Z,80
2016-12-19T13:02:37.491Z,80
2016-12-19T13:03:37.483Z,80
2016-12-19T13:04:37.460Z,80
2016-12-19T13:05:37.444Z,80
2016-12-19T13:06:37.432Z,80
2016-12-19T13:07:37.405Z,80
2016-12-19T13:08:37.394Z,80
2016-12-19T13:09:37.389Z,75
2016-12-19T13:10:37.362Z,75
2016-12-19T13:11:37.353Z,75
2016-12-19T13:12:37.332Z,75
2016-12-19T13:13:37.321Z,75
2016-12-19T13:14:37.294Z,75
2016-12-19T13:15:37.285Z,75
2016-12-19T13:16:37.273Z,75
2016-12-19T13:17:37.249Z,75
2016-12-19T13:18:37.229Z,75
2016-12-19T13:19:37.223Z,75
2016-12-19T13:20:37.209Z,75
2016-12-19T13:21:37.191Z,75
2016-12-19T13:22:37.174Z,75
2016-12-19T13:23:37.159Z,75
2016-12-19T13:24:37.149Z,70
2016-12-19T13:25:37.130Z,70
2016-12-19T13:26:37.112Z,70
2016-12-19T13:27:37.089Z,70
2016-12-19T13:28:37.079Z,70
2016-12-19T13:29:37.058Z,70
2016-12-19T13:30:37.045Z,70
2016-12-19T13:31:37.027Z,70
2016-12-19T13:32:37.016Z,70
2016-12-19T13:33:36.999Z,70
2016-12-19T13:34:36.979Z,70
2016-12-19T13:35:37.671Z,70
2016-12-19T13:36:36.955Z,70
2016-12-19T13:37:36.933Z,65
2016-12-19T13:38:36.922Z,65
2016-12-19T13:39:36.939Z,65
2016-12-19T13:40:36.884Z,65
2016-12-19T13:41:36.867Z,65
2016-12-19T13:42:36.851Z,65
2016-12-19T13:43:36.836Z,65
2016-12-19T13:44:36.851Z,65
2016-12-19T13:45:36.805Z,65
2016-12-19T13:46:38.775Z,65
2016-12-19T13:47:36.771Z,60
2016-12-19T13:48:36.762Z,60
2016-12-19T13:49:36.736Z,60
2016-12-19T13:50:36.722Z,60
2016-12-19T13:51:36.709Z,60
2016-12-19T13:52:36.687Z,60
2016-12-19T13:53:36.748Z,60
2016-12-19T13:54:36.667Z,60
2016-12-19T13:55:36.685Z,60
2016-12-19T13:56:36.637Z,60
2016-12-19T13:57:36.626Z,60
2016-12-19T13:58:36.600Z,55
2016-12-19T13:59:36.573Z,55
2016-12-19T14:00:36.568Z,55
2016-12-19T14:01:36.549Z,55
2016-12-19T14:02:36.536Z,55
2016-12-19T14:03:36.511Z,55
2016-12-19T14:04:36.498Z,55
2016-12-19T14:05:36.479Z,55
2016-12-19T14:06:36.467Z,55
2016-12-19T14:07:36.447Z,50
2016-12-19T14:08:36.439Z,50
2016-12-19T14:09:36.416Z,50
2016-12-19T14:10:36.405Z,50
2016-12-19T14:11:36.694Z,50
2016-12-19T14:12:36.368Z,50
2016-12-19T14:13:36.348Z,50
2016-12-19T14:14:36.337Z,50
2016-12-19T14:15:36.319Z,45
2016-12-19T14:16:36.304Z,45
2016-12-19T14:17:36.292Z,45
2016-12-19T14:18:36.262Z,45
2016-12-19T14:19:36.258Z,45
2016-12-19T14:20:36.237Z,45
2016-12-19T14:21:36.273Z,45
2016-12-19T14:22:36.202Z,40
2016-12-19T14:23:36.184Z,40
2016-12-19T14:24:36.173Z,40
2016-12-19T14:25:36.156Z,40